Time;durP1;ratioP1;P1;durP2;ratioP2;P2;SDS_P1;SDS_P2;PMS_P1;PMS_P2;Temp;Humidity;BMP_temperature;BMP_pressure;BME280_temperature;BME280_humidity;BME280_pressure;Samples;Min_cycle;Max_cycle;Signal;HPM_P1;HPM_P2
2023/01/22 00:02:26;;;;;;;20.67;13.80;;;-0.10;97.00;;;-0.97;88.90;98525.19;5083919;28;20459;-75
2023/01/22 00:04:54;;;;;;;16.57;12.07;;;-0.30;95.90;;;-1.51;89.14;98438.56;5097906;28;20454;-77
2023/01/22 00:07:22;;;;;;;19.03;13.13;;;-0.40;96.70;;;-0.99;88.62;98517.34;5083367;28;20460;-78
2023/01/22 00:09:50;;;;;;;17.77;12.00;;;-0.30;97.30;;;-1.07;89.64;98519.84;5077828;28;20804;-75
2023/01/22 00:12:17;;;;;;;19.63;12.10;;;-0.40;97.50;;;-1.32;89.77;98487.41;5078105;28;20802;-75
2023/01/22 00:14:45;;;;;;;20.60;12.67;;;-0.40;98.10;;;-1.26;89.52;98483.41;5076444;28;20442;-76
2023/01/22 00:17:13;;;;;;;17.00;10.83;;;-0.40;98.90;;;-0.94;90.03;98515.19;5092139;28;20428;-75
2023/01/22 00:19:41;;;;;;;16.53;12.50;;;-0.40;99.70;;;-1.09;89.68;98506.69;5086177;28;20461;-77
2023/01/22 00:22:11;;;;;;;17.77;12.70;;;-0.40;98.80;;;-1.61;89.41;98408.50;5096210;28;20542;-76
2023/01/22 00:24:38;;;;;;;17.10;12.33;;;-0.40;99.00;;;-0.96;88.97;98495.03;5092608;28;20949;-78
2023/01/22 00:27:06;;;;;;;18.47;13.57;;;-0.30;99.30;;;-1.07;89.08;98478.22;5086139;28;20537;-74
2023/01/22 00:29:36;;;;;;;16.33;11.90;;;-0.30;98.90;;;-0.98;88.26;98483.72;5088782;28;20446;-76
2023/01/22 00:32:03;;;;;;;17.87;12.60;;;-0.10;96.70;;;-0.87;88.25;98508.38;5081319;28;20474;-78
2023/01/22 00:34:31;;;;;;;19.30;12.03;;;-0.20;96.20;;;-0.70;88.25;98500.78;5087079;28;20877;-78
2023/01/22 00:36:58;;;;;;;15.57;12.30;;;-0.10;97.70;;;-0.74;88.45;98515.28;5089188;28;20959;-80
2023/01/22 00:39:26;;;;;;;18.77;12.83;;;-0.10;95.90;;;-0.87;88.62;98507.53;5087937;28;20454;-77
2023/01/22 00:41:54;;;;;;;18.17;11.73;;;-0.20;96.10;;;-1.06;89.03;98498.50;5090409;28;20536;-73
2023/01/22 00:44:21;;;;;;;16.00;11.97;;;-0.30;96.80;;;-0.97;89.21;98502.19;5100447;28;20517;-76
2023/01/22 00:46:48;;;;;;;16.77;12.10;;;-0.30;98.30;;;-1.19;88.93;98466.84;5086530;28;20450;-74
2023/01/22 00:49:16;;;;;;;17.00;12.00;;;-0.30;98.20;;;-1.25;89.20;98446.16;5080450;28;20483;-76
2023/01/22 00:51:43;;;;;;;18.30;12.03;;;-0.40;98.40;;;-0.83;88.60;98526.69;5084107;28;20503;-76
2023/01/22 00:54:11;;;;;;;17.83;12.03;;;-0.30;98.60;;;-0.80;88.56;98507.88;5080185;28;20886;-74
2023/01/22 00:56:39;;;;;;;16.70;11.90;;;-0.20;97.40;;;-1.04;89.04;98503.66;5080023;28;20452;-77
2023/01/22 00:59:09;;;;;;;14.33;10.50;;;-0.30;97.50;;;-1.19;88.36;98448.28;5092764;28;20450;-75
2023/01/22 01:01:37;;;;;;;18.60;12.20;;;-0.20;98.50;;;-0.78;88.84;98516.53;5087967;28;20875;-76
2023/01/22 01:04:05;;;;;;;17.97;11.77;;;-0.20;97.60;;;-1.13;89.23;98483.22;5087645;28;20542;-74
2023/01/22 01:06:32;;;;;;;18.17;12.57;;;-0.40;97.80;;;-1.51;89.45;98435.94;5087961;28;20460;-75
2023/01/22 01:09:00;;;;;;;14.87;11.00;;;-0.30;99.20;;;-1.07;90.28;98514.53;5088329;28;20481;-73
2023/01/22 01:11:29;;;;;;;16.23;11.63;;;-0.40;99.30;;;-0.72;89.32;98514.19;5086088;28;20471;-75
2023/01/22 01:13:58;;;;;;;17.20;11.93;;;-0.30;99.90;;;-1.26;89.56;98463.03;5090012;28;20466;-75
2023/01/22 01:16:30;;;;;;;15.10;11.23;;;-0.30;99.50;;;-0.95;89.07;98524.13;5088977;28;20462;-74
2023/01/22 01:18:58;;;;;;;17.30;11.27;;;-0.30;99.00;;;-1.18;89.37;98484.44;5072061;28;21304;-76
2023/01/22 01:21:26;;;;;;;18.30;12.03;;;-0.30;98.90;;;-0.97;89.72;98510.13;5089539;28;20558;-75
2023/01/22 01:23:55;;;;;;;17.00;10.80;;;-0.40;99.70;;;-1.09;90.45;98527.91;5084145;28;20461;-75
2023/01/22 01:26:22;;;;;;;18.50;11.93;;;-0.40;99.70;;;-0.97;89.68;98504.84;5089125;28;20471;-75
2023/01/22 01:28:51;;;;;;;15.77;11.70;;;-0.40;99.90;;;-1.08;89.62;98500.41;5092704;28;20808;-78
2023/01/22 01:31:24;;;;;;;16.73;11.20;;;-0.30;99.90;;;-1.02;90.26;98528.22;5087441;28;20458;-76
2023/01/22 01:33:52;;;;;;;15.43;11.93;;;-0.40;99.90;;;-1.12;89.89;98490.22;5088566;28;20453;-77
2023/01/22 01:36:22;;;;;;;17.20;11.67;;;-0.40;99.90;;;-1.09;90.02;98503.22;5070943;28;20474;-77
2023/01/22 01:38:51;;;;;;;19.10;12.27;;;-0.40;99.90;;;-1.08;90.25;98518.16;5077705;28;20466;-75
2023/01/22 01:41:21;;;;;;;18.00;12.80;;;-0.40;99.90;;;-1.13;91.09;98518.53;5072883;28;20478;-75
2023/01/22 01:44:08;;;;;;;15.87;11.73;;;-0.40;99.90;;;-0.77;90.13;98515.56;5083536;28;20452;-77
2023/01/22 01:46:40;;;;;;;15.50;10.53;;;-0.30;99.90;;;-0.86;90.29;98518.00;5083217;28;20468;-74
2023/01/22 01:49:29;;;;;;;17.40;11.87;;;-0.30;99.90;;;-1.05;90.02;98520.53;5099444;28;20465;-75
2023/01/22 01:52:03;;;;;;;16.00;11.50;;;-0.30;99.90;;;-0.75;89.58;98513.59;5092287;28;20472;-77
2023/01/22 01:54:33;;;;;;;15.53;11.00;;;-0.20;99.90;;;-0.97;89.21;98494.22;5090505;28;20458;-77
2023/01/22 01:57:07;;;;;;;18.00;12.13;;;-0.20;99.90;;;-0.57;88.68;98522.66;5092079;28;20459;-76
2023/01/22 01:59:35;;;;;;;15.50;11.70;;;-0.10;99.90;;;-0.81;89.28;98522.09;5106526;28;20452;-77
2023/01/22 02:02:05;;;;;;;16.80;11.60;;;-0.20;98.00;;;-0.87;89.53;98523.47;5097570;28;20953;-76
2023/01/22 02:04:32;;;;;;;20.63;12.93;;;-0.20;98.10;;;-0.82;89.45;98529.22;5088576;28;21219;-76
2023/01/22 02:07:00;;;;;;;15.87;11.33;;;-0.30;98.60;;;-1.27;89.03;98441.94;5084670;28;20522;-72
2023/01/22 02:09:28;;;;;;;14.97;11.13;;;-0.20;99.90;;;-0.90;89.10;98529.84;5099546;28;20463;-75
2023/01/22 02:11:55;;;;;;;14.17;11.10;;;-0.20;99.30;;;-0.95;90.60;98537.38;5083442;28;20454;-75
2023/01/22 02:14:26;;;;;;;16.03;11.30;;;-0.30;99.10;;;-1.25;90.33;98491.25;5085492;28;20509;-74
2023/01/22 02:17:01;;;;;;;17.90;12.13;;;-0.40;99.70;;;-0.86;89.94;98538.41;5085763;28;20463;-75
2023/01/22 02:19:29;;;;;;;12.93;10.60;;;-0.30;99.90;;;-0.94;90.31;98533.75;5087474;28;20466;-75
2023/01/22 02:21:59;;;;;;;16.70;12.30;;;-0.30;99.90;;;-0.82;89.50;98539.00;5081462;28;20681;-78
2023/01/22 02:24:30;;;;;;;22.67;12.50;;;-0.20;99.90;;;-1.05;88.78;98507.28;5104642;28;20457;-77
2023/01/22 02:26:57;;;;;;;19.23;11.43;;;-0.20;98.50;;;-0.91;89.92;98543.25;5076223;28;20666;-79
2023/01/22 02:29:25;;;;;;;16.00;11.37;;;-0.30;98.10;;;-1.12;90.54;98554.69;5076450;28;20502;-74
2023/01/22 02:31:52;;;;;;;15.90;11.50;;;-0.40;98.40;;;-0.92;90.82;98547.72;5089570;28;20458;-76
2023/01/22 02:34:23;;;;;;;15.63;10.87;;;-0.40;99.90;;;-1.12;90.75;98552.03;5084616;28;20462;-75
2023/01/22 02:36:51;;;;;;;17.17;12.10;;;-0.40;99.90;;;-1.40;90.60;98464.19;5080221;28;20462;-77
2023/01/22 02:39:19;;;;;;;17.20;10.60;;;-0.30;99.90;;;-1.38;89.60;98453.47;5086997;28;20850;-82
2023/01/22 02:41:47;;;;;;;16.33;10.93;;;-0.20;99.90;;;-1.72;89.71;98434.09;5084853;28;20476;-78
2023/01/22 02:44:14;;;;;;;15.10;10.50;;;-0.30;99.90;;;-1.17;90.93;98555.06;5080758;28;20509;-76
2023/01/22 02:46:41;;;;;;;17.20;11.70;;;-0.40;99.90;;;-1.08;90.49;98539.38;5086205;28;20533;-76
2023/01/22 02:49:08;;;;;;;16.40;10.90;;;-0.40;99.90;;;-1.09;90.79;98548.31;5086528;28;20884;-75
2023/01/22 02:51:35;;;;;;;18.40;11.70;;;-0.50;99.90;;;-1.01;90.12;98519.31;5075307;28;20453;-76
2023/01/22 02:54:03;;;;;;;16.30;11.20;;;-0.30;99.90;;;-1.06;90.78;98553.34;5087630;28;20505;-74
2023/01/22 02:56:35;;;;;;;15.90;11.37;;;-0.40;99.90;;;-1.11;90.86;98539.63;5085805;28;20915;-74
2023/01/22 02:59:03;;;;;;;17.80;11.40;;;-0.40;99.90;;;-0.93;90.60;98543.38;5100744;28;20534;-73
2023/01/22 03:01:30;;;;;;;16.57;10.97;;;-0.40;99.90;;;-0.74;90.17;98560.41;5083316;28;20827;-75
2023/01/22 03:04:09;;;;;;;14.70;11.10;;;-0.30;99.90;;;-1.34;89.50;98486.69;5091980;28;20982;-74
2023/01/22 03:06:38;;;;;;;14.23;10.47;;;-0.30;99.90;;;-1.08;90.37;98550.81;5083681;28;20459;-74
2023/01/22 03:09:07;;;;;;;13.07;10.33;;;-0.40;99.90;;;-1.35;91.15;98527.44;5079137;28;20944;-75
2023/01/22 03:11:37;;;;;;;15.40;12.00;;;-0.50;99.90;;;-1.18;90.57;98528.69;5081495;28;20459;-74
2023/01/22 03:22:24;;;;;;;14.50;10.90;;;-0.50;99.90;;;-1.09;91.68;98550.94;5093893;27;21005;-75
2023/01/22 03:24:52;;;;;;;18.27;12.20;;;-0.50;99.90;;;-0.93;90.85;98556.66;5080525;28;20450;-77
2023/01/22 03:27:24;;;;;;;14.60;10.43;;;-0.40;99.90;;;-1.18;90.88;98545.44;5087724;28;20542;-76
2023/01/22 03:29:51;;;;;;;15.80;10.80;;;-0.40;99.90;;;-1.30;90.70;98490.75;5077249;28;20997;-77
2023/01/22 03:32:19;;;;;;;17.07;12.27;;;-0.40;99.90;;;-0.87;90.31;98553.47;5091804;28;20485;-76
2023/01/22 03:34:46;;;;;;;16.57;11.67;;;-0.30;99.90;;;-0.90;90.80;98566.19;5082216;28;21130;-76
2023/01/22 03:37:14;;;;;;;16.00;11.20;;;-0.40;99.90;;;-1.12;90.93;98533.47;5080729;28;20975;-77
2023/01/22 03:39:41;;;;;;;16.87;12.67;;;-0.40;99.90;;;-0.79;90.84;98557.31;5079515;28;20452;-79
2023/01/22 03:42:09;;;;;;;15.93;11.00;;;-0.40;99.90;;;-0.63;89.32;98555.03;5075466;28;21161;-76
2023/01/22 03:44:38;;;;;;;14.93;11.40;;;-0.20;99.90;;;-0.99;90.31;98527.97;5077687;28;20451;-78
2023/01/22 03:47:05;;;;;;;17.57;11.73;;;-0.30;99.90;;;-0.88;90.11;98541.19;5078786;28;21015;-75
2023/01/22 03:49:33;;;;;;;17.13;11.40;;;-0.30;99.90;;;-0.67;89.00;98537.69;5102834;28;20454;-78
2023/01/22 03:52:00;;;;;;;16.80;11.20;;;-0.10;99.90;;;-0.95;90.29;98561.25;5092525;28;20445;-75
2023/01/22 03:54:27;;;;;;;18.40;12.17;;;-0.30;99.90;;;-1.26;90.98;98534.63;5080048;28;20451;-73
2023/01/22 03:56:54;;;;;;;15.60;12.27;;;-0.40;99.90;;;-1.06;90.97;98558.66;5079789;28;20460;-75
2023/01/22 03:59:22;;;;;;;17.23;11.27;;;-0.50;99.90;;;-0.95;91.16;98555.94;5084121;28;20486;-73
2023/01/22 04:01:52;;;;;;;15.57;11.37;;;-0.40;99.90;;;-1.04;90.54;98535.47;5080181;28;20527;-74
2023/01/22 04:04:19;;;;;;;15.57;10.80;;;-0.40;99.90;;;-0.94;90.54;98557.63;5077219;28;20450;-73
2023/01/22 04:06:46;;;;;;;17.00;12.57;;;-0.40;99.90;;;-1.22;91.30;98537.84;5083983;28;20454;-74
2023/01/22 04:09:14;;;;;;;16.93;12.00;;;-0.50;99.90;;;-1.23;91.77;98552.94;5080030;28;20459;-75
2023/01/22 04:11:41;;;;;;;16.27;12.37;;;-0.60;99.90;;;-1.19;91.99;98564.13;5083465;28;20452;-76
2023/01/22 04:14:09;;;;;;;17.17;12.27;;;-0.60;99.90;;;-1.15;90.94;98539.03;5082827;28;20459;-75
2023/01/22 04:16:36;;;;;;;20.13;11.70;;;-0.40;99.90;;;-1.19;91.65;98569.44;5082653;28;20463;-76
2023/01/22 04:19:04;;;;;;;19.97;13.60;;;-0.50;99.90;;;-1.25;92.51;98570.78;5082686;28;21115;-75
2023/01/22 04:21:32;;;;;;;19.40;12.33;;;-0.60;99.90;;;-1.25;92.53;98568.13;5080368;28;20946;-76
2023/01/22 04:23:59;;;;;;;18.30;12.73;;;-0.60;99.90;;;-1.03;91.80;98574.31;5077457;28;20469;-76
2023/01/22 04:26:26;;;;;;;14.87;10.87;;;-0.50;99.90;;;-0.87;91.32;98580.00;5082321;28;20467;-76
2023/01/22 04:28:54;;;;;;;20.17;12.60;;;-0.40;99.90;;;-1.17;90.96;98556.91;5084425;28;20566;-75
2023/01/22 04:31:22;;;;;;;18.00;13.10;;;-0.50;99.90;;;-1.17;91.75;98567.50;5078295;28;20776;-77
2023/01/22 04:33:49;;;;;;;17.53;12.80;;;-0.50;99.90;;;-1.05;92.01;98576.25;5077554;28;20451;-75
2023/01/22 04:36:18;;;;;;;17.13;12.03;;;-0.60;99.90;;;-0.98;91.37;98577.44;5094108;28;20491;-75
2023/01/22 04:38:45;;;;;;;16.03;11.60;;;-0.50;99.90;;;-1.19;92.04;98570.28;5085641;28;20458;-74
2023/01/22 04:41:12;;;;;;;18.43;11.73;;;-0.50;99.90;;;-1.18;92.41;98582.56;5085877;28;20440;-74
2023/01/22 04:43:40;;;;;;;16.27;11.80;;;-0.60;99.90;;;-1.34;92.39;98571.53;5082754;28;20528;-74
2023/01/22 04:46:07;;;;;;;15.13;11.47;;;-0.60;99.90;;;-1.24;92.24;98580.44;5074371;28;20459;-75
2023/01/22 04:48:34;;;;;;;14.93;10.87;;;-0.60;99.90;;;-1.27;92.16;98583.34;5086455;28;20459;-74
2023/01/22 04:51:02;;;;;;;16.10;11.17;;;-0.60;99.90;;;-1.35;92.82;98554.81;5094822;28;20456;-74
2023/01/22 04:53:30;;;;;;;17.80;11.70;;;-0.60;99.90;;;-1.31;92.28;98576.56;5076466;28;20509;-78
2023/01/22 04:55:58;;;;;;;18.57;12.70;;;-0.60;99.90;;;-1.15;92.65;98577.00;5081903;28;20455;-78
2023/01/22 04:58:25;;;;;;;17.60;12.63;;;-0.60;99.90;;;-1.19;92.80;98590.66;5083389;28;20566;-77
2023/01/22 05:00:55;;;;;;;15.87;12.57;;;-0.60;99.90;;;-1.40;92.24;98553.50;5081912;28;20501;-78
2023/01/22 05:03:22;;;;;;;16.70;11.90;;;-0.60;99.90;;;-1.27;92.61;98593.09;5083982;28;20479;-74
2023/01/22 05:05:50;;;;;;;21.90;13.53;;;-0.60;99.90;;;-1.31;93.13;98597.78;5089552;28;20938;-77
2023/01/22 05:08:17;;;;;;;17.17;12.97;;;-0.70;99.90;;;-1.30;92.01;98583.56;5084014;28;20455;-73
2023/01/22 05:10:46;;;;;;;17.30;12.87;;;-0.60;99.90;;;-0.96;91.75;98606.47;5102943;27;20593;-76
2023/01/22 05:13:13;;;;;;;21.10;12.67;;;-0.60;99.90;;;-1.16;91.83;98599.19;5088621;28;20454;-74
2023/01/22 05:15:40;;;;;;;21.10;12.13;;;-0.60;99.90;;;-1.28;92.44;98592.25;5083907;28;20454;-72
2023/01/22 05:18:07;;;;;;;19.90;11.60;;;-0.60;99.90;;;-1.16;92.33;98603.66;5087781;28;20474;-75
2023/01/22 05:20:35;;;;;;;16.43;12.10;;;-0.60;99.90;;;-1.33;92.58;98599.72;5091825;28;20449;-73
2023/01/22 05:23:02;;;;;;;19.87;14.30;;;-0.60;99.90;;;-1.09;92.25;98606.66;5107420;28;20472;-73
2023/01/22 05:25:29;;;;;;;21.37;12.60;;;-0.60;99.90;;;-1.27;92.99;98615.16;5104675;28;20458;-74
2023/01/22 05:27:59;;;;;;;18.33;12.90;;;-0.60;99.90;;;-1.34;93.10;98613.97;5103360;28;20448;-74
2023/01/22 05:30:27;;;;;;;16.77;13.27;;;-0.70;99.90;;;-1.33;92.63;98605.03;5078805;28;20470;-73
2023/01/22 05:32:56;;;;;;;18.77;13.50;;;-0.60;99.90;;;-1.23;92.86;98603.31;5088607;28;20446;-74
2023/01/22 05:35:24;;;;;;;16.97;11.70;;;-0.60;99.90;;;-1.19;92.64;98612.69;5086019;28;20962;-75
2023/01/22 05:37:51;;;;;;;21.70;13.83;;;-0.60;99.90;;;-1.36;92.75;98606.16;5089819;28;20450;-75
2023/01/22 05:40:18;;;;;;;18.60;12.93;;;-0.60;99.90;;;-1.41;93.27;98602.19;5087064;28;20446;-75
2023/01/22 05:42:45;;;;;;;20.13;13.00;;;-0.70;99.90;;;-1.33;93.33;98620.94;5084838;28;20468;-75
2023/01/22 05:45:14;;;;;;;21.30;13.03;;;-0.70;99.90;;;-1.75;92.99;98536.84;5078872;28;20450;-77
2023/01/22 05:47:42;;;;;;;17.40;13.20;;;-0.70;99.90;;;-1.38;93.55;98618.66;5073474;28;20452;-73
2023/01/22 05:50:10;;;;;;;21.10;13.67;;;-0.70;99.90;;;-1.37;93.59;98614.22;5085993;28;21115;-75
2023/01/22 05:52:38;;;;;;;21.50;14.30;;;-0.70;99.90;;;-1.39;92.45;98568.44;5078042;28;21691;-77
2023/01/22 05:55:07;;;;;;;20.00;13.17;;;-0.60;99.90;;;-1.04;92.06;98623.88;5086255;28;20456;-74
2023/01/22 05:57:35;;;;;;;18.03;12.50;;;-0.60;99.90;;;-1.07;92.71;98632.06;5079978;28;20459;-74
2023/01/22 06:00:04;;;;;;;22.60;12.90;;;-0.60;99.90;;;-1.08;92.19;98614.47;5078874;28;20508;-74
2023/01/22 06:02:34;;;;;;;19.63;12.80;;;-0.60;99.90;;;-1.03;92.19;98637.97;5087286;28;20568;-74
2023/01/22 06:05:01;;;;;;;18.03;12.70;;;-0.60;99.90;;;-1.07;92.07;98634.72;5082235;28;20463;-73
2023/01/22 06:07:30;;;;;;;22.73;13.73;;;-0.60;99.90;;;-1.19;92.29;98643.69;5082748;28;21011;-75
2023/01/22 06:09:58;;;;;;;18.60;12.60;;;-0.60;99.90;;;-1.22;92.71;98634.19;5081960;28;20529;-75
2023/01/22 06:12:25;;;;;;;22.33;13.37;;;-0.70;99.90;;;-1.25;93.23;98636.22;5078338;28;20550;-75
2023/01/22 06:14:53;;;;;;;18.57;12.37;;;-0.70;99.90;;;-1.19;92.77;98636.56;5074661;28;20459;-74
2023/01/22 06:17:20;;;;;;;18.60;11.97;;;-0.60;99.90;;;-1.48;92.62;98597.34;5086894;28;20450;-75
2023/01/22 06:19:49;;;;;;;19.97;12.93;;;-0.70;99.90;;;-1.29;92.78;98639.13;5081862;28;20500;-72
2023/01/22 06:22:18;;;;;;;17.30;11.70;;;-0.60;99.90;;;-1.15;92.79;98634.50;5086426;28;20494;-73
2023/01/22 06:24:45;;;;;;;22.97;11.97;;;-0.60;99.90;;;-0.78;91.75;98646.56;5086801;28;20497;-73
2023/01/22 06:27:12;;;;;;;18.20;12.60;;;-0.50;99.90;;;-0.97;91.69;98648.09;5088228;28;20525;-76
2023/01/22 06:29:39;;;;;;;15.43;12.23;;;-0.50;99.90;;;-1.00;91.58;98650.97;5086468;28;20463;-76
2023/01/22 06:32:07;;;;;;;16.40;11.53;;;-0.50;99.90;;;-1.17;91.41;98644.41;5085323;28;20455;-74
2023/01/22 06:34:34;;;;;;;20.43;12.37;;;-0.50;99.90;;;-1.38;92.60;98633.75;5083820;28;20463;-76
2023/01/22 06:37:03;;;;;;;17.47;12.40;;;-0.60;99.90;;;-1.18;92.38;98662.13;5092732;27;20444;-72
2023/01/22 06:39:30;;;;;;;19.13;12.63;;;-0.60;99.90;;;-1.33;92.51;98616.50;5075538;28;20451;-74
2023/01/22 06:41:59;;;;;;;14.63;11.50;;;-0.60;99.90;;;-1.17;92.48;98665.63;5077804;28;21037;-76
2023/01/22 06:44:26;;;;;;;17.27;11.93;;;-0.60;99.90;;;-0.89;92.37;98660.72;5094273;27;20458;-71
2023/01/22 06:46:54;;;;;;;16.07;11.97;;;-0.50;99.90;;;-0.82;91.17;98661.06;5073742;28;20813;-70
2023/01/22 06:49:21;;;;;;;16.87;11.50;;;-0.40;99.90;;;-0.57;89.85;98658.03;5076860;28;20482;-71
2023/01/22 06:51:48;;;;;;;19.70;11.70;;;-0.30;99.90;;;-0.73;90.03;98665.59;5079994;28;20447;-70
2023/01/22 06:54:17;;;;;;;15.43;11.30;;;-0.30;99.90;;;-0.74;90.13;98669.22;5087947;28;20455;-72
2023/01/22 06:56:44;;;;;;;14.30;10.37;;;-0.20;99.90;;;-0.65;89.58;98676.44;5081976;28;20460;-73
2023/01/22 06:59:12;;;;;;;12.67;9.67;;;-0.20;99.90;;;-0.67;89.99;98686.34;5081272;28;21072;-75
2023/01/22 07:01:39;;;;;;;13.43;10.27;;;-0.20;99.90;;;-0.65;89.78;98671.13;5079550;28;20672;-72
2023/01/22 07:04:06;;;;;;;14.30;10.47;;;-0.20;99.90;;;-0.46;89.01;98688.16;5081366;28;20483;-73
2023/01/22 07:06:34;;;;;;;13.43;9.97;;;-0.10;99.90;;;-0.54;88.85;98677.31;5091504;28;20515;-73
2023/01/22 07:09:01;;;;;;;12.60;8.87;;;-0.10;99.90;;;-0.33;88.09;98683.50;5081008;28;20649;-72
2023/01/22 07:11:30;;;;;;;16.83;11.30;;;0.00;99.90;;;-0.33;87.69;98683.50;5079823;28;20460;-72
2023/01/22 07:13:57;;;;;;;13.63;10.83;;;0.10;99.30;;;-0.41;87.57;98677.97;5082159;28;20521;-71
2023/01/22 07:16:24;;;;;;;13.80;10.33;;;0.00;97.70;;;-0.56;88.46;98682.78;5091947;28;20453;-73
2023/01/22 07:18:52;;;;;;;13.80;9.80;;;0.00;97.60;;;-0.45;88.11;98689.84;5085212;28;20543;-72
2023/01/22 07:21:19;;;;;;;13.20;9.97;;;0.00;98.40;;;-0.42;87.74;98697.53;5096639;28;20466;-72
2023/01/22 07:23:46;;;;;;;14.93;10.30;;;0.00;97.40;;;-0.60;88.17;98674.22;5077831;28;20474;-74
2023/01/22 07:26:14;;;;;;;13.67;9.70;;;-0.10;97.50;;;-0.55;87.94;98697.75;5082956;28;20455;-72
2023/01/22 07:28:44;;;;;;;14.50;11.53;;;0.00;97.60;;;-0.39;87.56;98689.31;5096671;27;20977;-72
2023/01/22 07:31:11;;;;;;;12.07;9.70;;;0.00;97.70;;;-0.33;87.32;98703.91;5078442;28;20713;-71
2023/01/22 07:33:38;;;;;;;12.87;9.40;;;0.10;97.20;;;-0.31;86.93;98686.88;5083512;28;21015;-72
2023/01/22 07:36:07;;;;;;;14.93;11.03;;;0.20;96.60;;;-0.16;86.47;98705.97;5083725;28;20516;-72
2023/01/22 07:38:34;;;;;;;15.00;9.47;;;0.30;95.60;;;-0.17;85.98;98703.47;5108885;27;20443;-70
2023/01/22 07:41:02;;;;;;;14.07;9.20;;;0.30;95.00;;;-0.02;85.77;98717.25;5079017;28;20452;-72
2023/01/22 07:43:29;;;;;;;11.43;9.37;;;0.30;95.00;;;-0.05;85.17;98705.06;5072734;28;20584;-71
2023/01/22 07:46:02;;;;;;;12.87;10.10;;;0.30;93.90;;;-0.22;85.64;98709.16;5085784;28;20918;-71
2023/01/22 07:48:29;;;;;;;10.73;8.43;;;0.30;93.50;;;-0.19;85.54;98721.34;5091569;28;20466;-71
2023/01/22 07:50:59;;;;;;;11.03;9.37;;;0.30;93.90;;;-0.12;85.20;98717.19;5084153;28;20455;-71
2023/01/22 07:53:26;;;;;;;16.43;9.90;;;0.30;93.90;;;-0.17;85.50;98719.41;5088426;28;20462;-73
2023/01/22 07:55:53;;;;;;;15.97;11.80;;;0.30;93.60;;;-0.30;85.49;98693.88;5078793;28;20512;-71
2023/01/22 07:58:21;;;;;;;11.97;9.47;;;0.30;93.80;;;-0.17;85.61;98719.41;5083761;28;20447;-73
2023/01/22 08:00:49;;;;;;;15.17;10.33;;;0.30;93.90;;;-0.36;85.37;98705.00;5092557;28;20516;-72
2023/01/22 08:03:18;;;;;;;12.33;9.90;;;0.30;93.60;;;-0.35;85.69;98738.56;5080548;28;20842;-71
2023/01/22 08:05:46;;;;;;;11.20;9.93;;;0.20;93.40;;;-0.36;86.21;98734.22;5088847;27;20853;-72
2023/01/22 08:08:15;;;;;;;12.07;9.13;;;0.20;93.70;;;-0.27;85.88;98739.72;5075054;28;20451;-71
2023/01/22 08:10:43;;;;;;;15.17;10.03;;;0.20;94.20;;;-0.22;86.10;98737.53;5070037;28;20452;-75
2023/01/22 08:13:11;;;;;;;13.33;9.73;;;0.30;94.20;;;-0.10;85.82;98741.78;5075505;28;20447;-71
2023/01/22 08:15:39;;;;;;;11.50;9.70;;;0.30;94.60;;;-0.08;86.34;98739.84;5075763;28;21146;-70
2023/01/22 08:18:07;;;;;;;16.13;9.97;;;0.30;94.00;;;-0.10;85.31;98731.16;5078916;28;20446;-70
2023/01/22 08:20:36;;;;;;;13.47;10.60;;;0.40;94.20;;;-0.02;85.05;98715.44;5075302;28;20451;-72
2023/01/22 08:23:03;;;;;;;13.53;9.10;;;0.50;93.70;;;0.11;84.64;98741.78;5076978;28;20466;-71
2023/01/22 08:25:30;;;;;;;13.43;9.60;;;0.60;92.80;;;0.09;84.89;98750.91;5078332;28;21009;-72
2023/01/22 08:28:02;;;;;;;11.63;9.90;;;0.60;93.10;;;0.04;84.34;98735.34;5095203;28;20462;-73
2023/01/22 08:30:29;;;;;;;13.80;10.13;;;0.60;92.60;;;-0.04;84.62;98759.91;5079581;28;20451;-72
2023/01/22 08:32:56;;;;;;;15.90;11.43;;;0.50;92.30;;;0.13;84.90;98749.66;5081224;28;20474;-74
2023/01/22 08:35:24;;;;;;;14.33;10.87;;;0.60;92.80;;;-0.07;84.88;98752.19;5076990;28;20479;-72
2023/01/22 08:37:52;;;;;;;15.07;10.63;;;0.60;91.80;;;-0.01;85.40;98762.28;5080452;28;20459;-72
2023/01/22 08:40:19;;;;;;;13.40;10.20;;;0.60;92.50;;;0.14;84.91;98761.97;5085136;28;20486;-71
2023/01/22 08:42:51;;;;;;;17.73;11.40;;;0.60;92.40;;;0.19;84.32;98759.75;5084238;28;20466;-72
2023/01/22 08:45:18;;;;;;;13.70;10.60;;;0.70;92.00;;;0.20;84.63;98768.56;5076995;28;20451;-73
2023/01/22 08:47:45;;;;;;;13.40;9.80;;;0.70;92.10;;;0.12;85.00;98766.56;5079225;28;20459;-73
2023/01/22 08:50:13;;;;;;;10.93;8.60;;;0.70;92.20;;;0.33;83.36;98773.69;5081674;28;20447;-71
2023/01/22 08:52:40;;;;;;;11.03;8.10;;;0.80;91.30;;;0.20;83.39;98769.41;5085744;28;20472;-73
2023/01/22 08:55:10;;;;;;;9.53;7.83;;;0.80;91.00;;;0.37;83.39;98775.94;5079572;28;20451;-70
2023/01/22 08:57:37;;;;;;;10.70;8.50;;;0.80;91.20;;;0.54;83.32;98774.50;5077566;28;20459;-71
2023/01/22 09:00:07;;;;;;;15.27;8.73;;;0.90;91.50;;;0.54;82.61;98777.16;5081285;28;20464;-71
2023/01/22 09:02:35;;;;;;;13.10;9.87;;;0.90;90.80;;;0.61;82.59;98777.47;5080303;28;20474;-74
2023/01/22 09:05:02;;;;;;;12.30;8.97;;;1.00;91.10;;;0.94;82.14;98777.31;5078977;28;20487;-71
2023/01/22 09:07:29;;;;;;;10.30;8.43;;;1.20;91.10;;;0.61;81.30;98779.28;5085205;28;20482;-69
2023/01/22 09:09:57;;;;;;;13.07;9.13;;;1.20;88.80;;;0.54;82.22;98782.50;5078991;28;20961;-68
2023/01/22 09:12:26;;;;;;;12.20;8.57;;;1.20;88.70;;;0.52;82.66;98789.72;5093707;28;20479;-69
2023/01/22 09:14:53;;;;;;;9.63;8.50;;;1.10;89.30;;;0.47;81.88;98786.63;5087915;28;20458;-67
2023/01/22 09:17:21;;;;;;;13.00;8.30;;;1.00;88.40;;;0.61;81.47;98781.94;5087229;28;20491;-73
2023/01/22 09:19:48;;;;;;;11.63;9.00;;;1.10;89.50;;;0.74;80.92;98793.22;5089635;28;20459;-69
2023/01/22 09:22:15;;;;;;;10.37;9.10;;;1.10;88.60;;;0.62;81.47;98795.13;5086800;28;20519;-69
2023/01/22 09:24:42;;;;;;;9.13;7.70;;;1.10;88.90;;;0.64;82.03;98797.63;5075781;28;20481;-70
2023/01/22 09:27:10;;;;;;;10.40;8.63;;;1.20;89.00;;;0.76;81.51;98801.91;5082259;28;20458;-71
2023/01/22 09:29:39;;;;;;;10.10;8.30;;;1.20;89.20;;;0.73;81.56;98809.28;5074567;28;20450;-70
2023/01/22 09:32:07;;;;;;;8.77;7.83;;;1.10;88.30;;;0.84;80.97;98812.72;5082798;28;20767;-85
2023/01/22 09:34:34;;;;;;;10.27;7.70;;;1.20;88.70;;;0.79;80.66;98806.94;5087384;28;20473;-74
2023/01/22 09:37:06;;;;;;;11.00;8.40;;;1.20;87.30;;;0.99;80.62;98804.38;5082443;28;20462;-68
2023/01/22 09:39:33;;;;;;;9.10;7.97;;;1.40;88.00;;;0.76;80.51;98801.91;5080678;28;20563;-70
2023/01/22 09:42:04;;;;;;;10.40;7.57;;;1.40;86.50;;;0.86;80.55;98801.09;5081688;28;20578;-70
2023/01/22 09:44:37;;;;;;;10.00;7.53;;;1.40;86.30;;;1.03;80.56;98800.47;5076142;28;20559;-70
2023/01/22 09:47:11;;;;;;;11.30;8.27;;;1.50;87.60;;;1.42;79.21;98813.84;5091355;28;20477;-70
2023/01/22 09:49:49;;;;;;;9.40;7.40;;;1.70;86.30;;;1.47;78.75;98821.44;5079240;28;20446;-69
2023/01/22 09:52:17;;;;;;;8.80;6.77;;;1.90;85.40;;;1.62;77.88;98823.72;5082995;28;20459;-70
2023/01/22 09:54:45;;;;;;;8.70;7.07;;;1.90;84.40;;;1.68;77.86;98818.66;5081706;28;20467;-70
2023/01/22 09:57:14;;;;;;;9.83;7.70;;;2.10;83.60;;;1.77;76.60;98822.31;5084187;28;20452;-70
2023/01/22 09:59:48;;;;;;;7.30;6.40;;;2.10;82.90;;;1.70;76.61;98819.38;5072055;28;20459;-70
2023/01/22 10:02:25;;;;;;;9.07;7.47;;;2.10;82.00;;;1.87;76.41;98827.66;5088295;28;20440;-70
2023/01/22 10:04:57;;;;;;;8.30;7.50;;;2.20;82.10;;;1.77;76.29;98826.81;5080790;28;20513;-68
2023/01/22 10:07:32;;;;;;;10.00;7.60;;;2.20;81.60;;;2.05;75.49;98822.47;5089518;28;20473;-70
2023/01/22 10:10:16;;;;;;;9.43;7.50;;;2.40;81.60;;;2.05;75.44;98824.31;5077757;28;20993;-69
2023/01/22 10:12:46;;;;;;;8.17;7.27;;;2.50;81.10;;;2.17;74.38;98806.34;5087630;28;20450;-71
2023/01/22 10:15:15;;;;;;;9.50;7.70;;;2.50;80.30;;;2.13;74.42;98811.09;5086449;28;20528;-70
2023/01/22 10:17:44;;;;;;;8.83;7.90;;;2.50;79.80;;;2.11;75.14;98815.75;5085267;28;20473;-72
2023/01/22 10:20:13;;;;;;;9.83;8.50;;;2.60;80.20;;;2.28;74.42;98813.34;5077648;28;20521;-71
2023/01/22 10:22:41;;;;;;;8.63;7.20;;;2.60;80.10;;;1.97;74.47;98769.88;5076229;28;20456;-72
2023/01/22 10:25:13;;;;;;;9.13;8.20;;;2.60;79.70;;;1.68;74.75;98745.91;5084914;28;20568;-71
2023/01/22 10:27:41;;;;;;;10.47;8.87;;;2.50;79.80;;;1.92;75.66;98819.25;5075958;28;20534;-72